sensor_id;sensor_type;location;lat;lon;timestamp;pressure;altitude;pressure_sealevel;temperature;humidity
54503;BME280;40411;50.090;21.954;2022-11-30T00:00:54;149054.75;;;-0.07;100.00
54503;BME280;40411;50.090;21.954;2022-11-30T00:03:20;149077.59;;;0.03;100.00
54503;BME280;40411;50.090;21.954;2022-11-30T00:05:46;149069.97;;;-0.01;100.00
54503;BME280;40411;50.090;21.954;2022-11-30T00:08:12;149082.69;;;0.05;100.00
54503;BME280;40411;50.090;21.954;2022-11-30T00:10:39;149059.84;;;-0.05;100.00
54503;BME280;40411;50.090;21.954;2022-11-30T00:13:05;149087.78;;;0.07;100.00
54503;BME280;40411;50.090;21.954;2022-11-30T00:15:32;149094.13;;;0.09;100.00
54503;BME280;40411;50.090;21.954;2022-11-30T00:17:58;149092.88;;;0.09;100.00
54503;BME280;40411;50.090;21.954;2022-11-30T00:20:24;149061.09;;;-0.04;100.00
54503;BME280;40411;50.090;21.954;2022-11-30T00:22:50;149103.00;;;0.13;100.00
54503;BME280;40411;50.090;21.954;2022-11-30T00:25:16;149108.09;;;0.15;100.00
54503;BME280;40411;50.090;21.954;2022-11-30T00:27:42;149105.53;;;0.14;100.00
54503;BME280;40411;50.090;21.954;2022-11-30T00:30:08;149087.78;;;0.07;100.00
54503;BME280;40411;50.090;21.954;2022-11-30T00:32:34;149092.88;;;0.09;100.00
54503;BME280;40411;50.090;21.954;2022-11-30T00:35:00;149056.00;;;-0.06;100.00
54503;BME280;40411;50.090;21.954;2022-11-30T00:37:26;149110.63;;;0.16;100.00
54503;BME280;40411;50.090;21.954;2022-11-30T00:39:52;149049.66;;;-0.09;100.00
54503;BME280;40411;50.090;21.954;2022-11-30T00:42:18;149054.75;;;-0.07;100.00
54503;BME280;40411;50.090;21.954;2022-11-30T00:44:43;149049.66;;;-0.09;100.00
54503;BME280;40411;50.090;21.954;2022-11-30T00:47:10;149020.47;;;-0.20;100.00
54503;BME280;40411;50.090;21.954;2022-11-30T00:49:35;149111.88;;;0.16;100.00
54503;BME280;40411;50.090;21.954;2022-11-30T00:52:02;149077.59;;;0.03;100.00
54503;BME280;40411;50.090;21.954;2022-11-30T00:54:28;149014.13;;;-0.23;100.00
54503;BME280;40411;50.090;21.954;2022-11-30T00:56:54;149029.34;;;-0.17;100.00
54503;BME280;40411;50.090;21.954;2022-11-30T00:59:20;149037.00;;;-0.14;100.00
54503;BME280;40411;50.090;21.954;2022-11-30T01:01:46;149056.00;;;-0.06;100.00
54503;BME280;40411;50.090;21.954;2022-11-30T01:04:12;149042.06;;;-0.12;100.00
54503;BME280;40411;50.090;21.954;2022-11-30T01:06:38;149049.66;;;-0.09;100.00
54503;BME280;40411;50.090;21.954;2022-11-30T01:09:04;149021.72;;;-0.20;100.00
54503;BME280;40411;50.090;21.954;2022-11-30T01:11:30;149024.31;;;-0.19;100.00
54503;BME280;40411;50.090;21.954;2022-11-30T01:13:58;149009.06;;;-0.25;100.00
54503;BME280;40411;50.090;21.954;2022-11-30T01:16:30;148996.38;;;-0.30;100.00
54503;BME280;40411;50.090;21.954;2022-11-30T01:18:57;149010.34;;;-0.25;100.00
54503;BME280;40411;50.090;21.954;2022-11-30T01:21:25;149024.31;;;-0.19;100.00
54503;BME280;40411;50.090;21.954;2022-11-30T01:23:52;149067.47;;;-0.02;100.00
54503;BME280;40411;50.090;21.954;2022-11-30T01:26:18;149062.38;;;-0.04;100.00
54503;BME280;40411;50.090;21.954;2022-11-30T01:28:48;149083.94;;;0.05;100.00
54503;BME280;40411;50.090;21.954;2022-11-30T01:31:15;149019.22;;;-0.21;100.00
54503;BME280;40411;50.090;21.954;2022-11-30T01:33:41;149061.09;;;-0.04;100.00
54503;BME280;40411;50.090;21.954;2022-11-30T01:36:13;149057.28;;;-0.06;100.00
54503;BME280;40411;50.090;21.954;2022-11-30T01:38:46;149047.16;;;-0.10;100.00
54503;BME280;40411;50.090;21.954;2022-11-30T01:41:17;149069.97;;;-0.01;100.00
54503;BME280;40411;50.090;21.954;2022-11-30T01:43:49;149120.81;;;0.20;100.00
54503;BME280;40411;50.090;21.954;2022-11-30T01:46:51;149083.94;;;0.05;100.00
54503;BME280;40411;50.090;21.954;2022-11-30T01:49:46;149049.66;;;-0.09;100.00
54503;BME280;40411;50.090;21.954;2022-11-30T01:54:49;149016.69;;;-0.22;100.00
54503;BME280;40411;50.090;21.954;2022-11-30T01:57:21;149025.56;;;-0.18;100.00
54503;BME280;40411;50.090;21.954;2022-11-30T01:59:52;148993.81;;;-0.31;100.00
54503;BME280;40411;50.090;21.954;2022-11-30T02:02:24;149007.78;;;-0.26;100.00
54503;BME280;40411;50.090;21.954;2022-11-30T02:04:53;148990.03;;;-0.33;100.00
54503;BME280;40411;50.090;21.954;2022-11-30T02:07:19;149026.81;;;-0.18;100.00
54503;BME280;40411;50.090;21.954;2022-11-30T02:09:45;148988.75;;;-0.33;100.00
54503;BME280;40411;50.090;21.954;2022-11-30T02:12:20;149043.31;;;-0.11;100.00
54503;BME280;40411;50.090;21.954;2022-11-30T02:14:53;149026.81;;;-0.18;100.00
54503;BME280;40411;50.090;21.954;2022-11-30T02:17:27;149062.38;;;-0.04;100.00
54503;BME280;40411;50.090;21.954;2022-11-30T02:22:54;149054.75;;;-0.07;100.00
54503;BME280;40411;50.090;21.954;2022-11-30T02:30:43;149108.09;;;0.15;100.00
54503;BME280;40411;50.090;21.954;2022-11-30T02:33:15;149052.22;;;-0.08;100.00
54503;BME280;40411;50.090;21.954;2022-11-30T02:35:44;149009.06;;;-0.25;100.00
54503;BME280;40411;50.090;21.954;2022-11-30T02:38:12;149038.28;;;-0.13;100.00
54503;BME280;40411;50.090;21.954;2022-11-30T02:40:38;149021.72;;;-0.20;100.00
54503;BME280;40411;50.090;21.954;2022-11-30T02:43:05;149025.56;;;-0.18;100.00
54503;BME280;40411;50.090;21.954;2022-11-30T02:45:43;149044.63;;;-0.11;100.00
54503;BME280;40411;50.090;21.954;2022-11-30T02:48:17;149085.25;;;0.06;100.00
54503;BME280;40411;50.090;21.954;2022-11-30T02:50:52;149043.31;;;-0.11;100.00
54503;BME280;40411;50.090;21.954;2022-11-30T02:53:19;149010.34;;;-0.25;100.00
54503;BME280;40411;50.090;21.954;2022-11-30T02:55:45;149054.75;;;-0.07;100.00
54503;BME280;40411;50.090;21.954;2022-11-30T02:58:13;149058.59;;;-0.05;100.00
54503;BME280;40411;50.090;21.954;2022-11-30T03:00:40;149000.16;;;-0.29;100.00
54503;BME280;40411;50.090;21.954;2022-11-30T03:03:07;148996.38;;;-0.30;100.00
54503;BME280;40411;50.090;21.954;2022-11-30T03:05:33;149007.78;;;-0.26;100.00
54503;BME280;40411;50.090;21.954;2022-11-30T03:07:59;149016.69;;;-0.22;100.00
54503;BME280;40411;50.090;21.954;2022-11-30T03:10:24;149057.28;;;-0.06;100.00
54503;BME280;40411;50.090;21.954;2022-11-30T03:12:50;149085.25;;;0.06;100.00
54503;BME280;40411;50.090;21.954;2022-11-30T03:15:16;149076.34;;;0.02;100.00
54503;BME280;40411;50.090;21.954;2022-11-30T03:17:42;149062.38;;;-0.04;100.00
54503;BME280;40411;50.090;21.954;2022-11-30T03:20:08;149045.88;;;-0.10;100.00
54503;BME280;40411;50.090;21.954;2022-11-30T03:22:34;149019.22;;;-0.21;100.00
54503;BME280;40411;50.090;21.954;2022-11-30T03:25:00;149067.47;;;-0.02;100.00
54503;BME280;40411;50.090;21.954;2022-11-30T03:27:26;149083.94;;;0.05;100.00
54503;BME280;40411;50.090;21.954;2022-11-30T03:29:52;149067.47;;;-0.02;100.00
54503;BME280;40411;50.090;21.954;2022-11-30T03:32:18;149082.69;;;0.05;100.00
54503;BME280;40411;50.090;21.954;2022-11-30T03:34:43;149110.63;;;0.16;100.00
54503;BME280;40411;50.090;21.954;2022-11-30T03:37:09;149078.91;;;0.03;100.00
54503;BME280;40411;50.090;21.954;2022-11-30T03:39:35;149058.59;;;-0.05;100.00
54503;BME280;40411;50.090;21.954;2022-11-30T03:42:01;149031.91;;;-0.16;100.00
54503;BME280;40411;50.090;21.954;2022-11-30T03:44:27;149056.00;;;-0.06;100.00
54503;BME280;40411;50.090;21.954;2022-11-30T03:46:54;149020.47;;;-0.20;100.00
54503;BME280;40411;50.090;21.954;2022-11-30T03:49:20;149064.94;;;-0.03;100.00
54503;BME280;40411;50.090;21.954;2022-11-30T03:51:46;149086.53;;;0.06;100.00
54503;BME280;40411;50.090;21.954;2022-11-30T03:54:11;149035.69;;;-0.14;100.00
54503;BME280;40411;50.090;21.954;2022-11-30T03:56:37;149058.59;;;-0.05;100.00
54503;BME280;40411;50.090;21.954;2022-11-30T03:59:03;149108.09;;;0.15;100.00
54503;BME280;40411;50.090;21.954;2022-11-30T04:01:29;149076.34;;;0.02;100.00
54503;BME280;40411;50.090;21.954;2022-11-30T04:03:55;149090.31;;;0.08;100.00
54503;BME280;40411;50.090;21.954;2022-11-30T04:06:21;149049.66;;;-0.09;100.00
54503;BME280;40411;50.090;21.954;2022-11-30T04:08:46;149083.94;;;0.05;100.00
54503;BME280;40411;50.090;21.954;2022-11-30T04:11:13;149119.50;;;0.19;100.00
54503;BME280;40411;50.090;21.954;2022-11-30T04:13:39;149127.16;;;0.22;100.00
54503;BME280;40411;50.090;21.954;2022-11-30T04:16:05;149092.88;;;0.09;100.00
54503;BME280;40411;50.090;21.954;2022-11-30T04:18:32;149120.81;;;0.20;100.00
54503;BME280;40411;50.090;21.954;2022-11-30T04:21:00;149129.69;;;0.24;100.00
54503;BME280;40411;50.090;21.954;2022-11-30T04:23:29;149119.50;;;0.19;100.00
54503;BME280;40411;50.090;21.954;2022-11-30T04:25:56;149113.19;;;0.17;100.00
54503;BME280;40411;50.090;21.954;2022-11-30T04:28:22;149134.78;;;0.26;100.00
54503;BME280;40411;50.090;21.954;2022-11-30T04:30:48;149120.81;;;0.20;100.00
54503;BME280;40411;50.090;21.954;2022-11-30T04:33:14;149125.84;;;0.22;100.00
54503;BME280;40411;50.090;21.954;2022-11-30T04:35:42;149085.25;;;0.06;100.00
54503;BME280;40411;50.090;21.954;2022-11-30T04:38:10;149103.00;;;0.13;100.00
54503;BME280;40411;50.090;21.954;2022-11-30T04:40:40;149127.16;;;0.22;100.00
54503;BME280;40411;50.090;21.954;2022-11-30T04:43:06;149120.81;;;0.20;100.00
54503;BME280;40411;50.090;21.954;2022-11-30T04:45:32;149116.97;;;0.18;100.00
54503;BME280;40411;50.090;21.954;2022-11-30T04:47:58;149127.16;;;0.22;100.00
54503;BME280;40411;50.090;21.954;2022-11-30T04:50:24;149138.56;;;0.27;100.00
54503;BME280;40411;50.090;21.954;2022-11-30T04:52:50;149125.84;;;0.22;100.00
54503;BME280;40411;50.090;21.954;2022-11-30T04:55:15;149125.84;;;0.22;100.00
54503;BME280;40411;50.090;21.954;2022-11-30T04:57:47;149133.47;;;0.25;100.00
54503;BME280;40411;50.090;21.954;2022-11-30T05:00:14;149151.28;;;0.32;100.00
54503;BME280;40411;50.090;21.954;2022-11-30T05:02:41;149163.97;;;0.37;100.00
54503;BME280;40411;50.090;21.954;2022-11-30T05:05:08;149124.59;;;0.21;100.00
54503;BME280;40411;50.090;21.954;2022-11-30T05:07:33;149141.13;;;0.28;100.00
54503;BME280;40411;50.090;21.954;2022-11-30T05:09:59;149120.81;;;0.20;100.00
54503;BME280;40411;50.090;21.954;2022-11-30T05:12:25;149185.56;;;0.46;100.00
54503;BME280;40411;50.090;21.954;2022-11-30T05:14:51;149161.44;;;0.36;100.00
54503;BME280;40411;50.090;21.954;2022-11-30T05:17:17;149142.41;;;0.29;100.00
54503;BME280;40411;50.090;21.954;2022-11-30T05:19:42;149166.50;;;0.38;100.00
54503;BME280;40411;50.090;21.954;2022-11-30T05:22:08;149179.22;;;0.43;100.00
54503;BME280;40411;50.090;21.954;2022-11-30T05:24:34;149147.50;;;0.31;100.00
54503;BME280;40411;50.090;21.954;2022-11-30T05:27:00;149202.06;;;0.53;100.00
54503;BME280;40411;50.090;21.954;2022-11-30T05:29:26;149137.31;;;0.27;100.00
54503;BME280;40411;50.090;21.954;2022-11-30T05:31:51;149151.28;;;0.32;100.00
54503;BME280;40411;50.090;21.954;2022-11-30T05:34:17;149176.69;;;0.42;100.00
54503;BME280;40411;50.090;21.954;2022-11-30T05:36:43;149142.41;;;0.29;100.00
54503;BME280;40411;50.090;21.954;2022-11-30T05:39:09;149160.16;;;0.36;100.00
54503;BME280;40411;50.090;21.954;2022-11-30T05:41:35;149180.47;;;0.44;100.00
54503;BME280;40411;50.090;21.954;2022-11-30T05:44:01;149166.50;;;0.38;100.00
54503;BME280;40411;50.090;21.954;2022-11-30T05:46:27;149190.66;;;0.48;100.00
54503;BME280;40411;50.090;21.954;2022-11-30T05:48:53;149218.59;;;0.59;100.00
54503;BME280;40411;50.090;21.954;2022-11-30T05:51:20;149212.25;;;0.57;100.00
54503;BME280;40411;50.090;21.954;2022-11-30T05:53:47;149227.47;;;0.63;100.00
54503;BME280;40411;50.090;21.954;2022-11-30T05:56:16;149204.63;;;0.54;100.00
54503;BME280;40411;50.090;21.954;2022-11-30T05:58:43;149252.91;;;0.73;100.00
54503;BME280;40411;50.090;21.954;2022-11-30T06:01:20;149243.97;;;0.70;100.00
54503;BME280;40411;50.090;21.954;2022-11-30T06:03:47;149212.25;;;0.57;100.00
54503;BME280;40411;50.090;21.954;2022-11-30T06:06:12;149197.00;;;0.51;100.00
54503;BME280;40411;50.090;21.954;2022-11-30T06:08:38;149167.75;;;0.39;100.00
54503;BME280;40411;50.090;21.954;2022-11-30T06:11:04;149184.31;;;0.46;100.00
54503;BME280;40411;50.090;21.954;2022-11-30T06:13:30;149230.00;;;0.64;100.00
54503;BME280;40411;50.090;21.954;2022-11-30T06:15:58;149211.00;;;0.56;100.00
54503;BME280;40411;50.090;21.954;2022-11-30T06:18:25;149219.88;;;0.60;100.00
54503;BME280;40411;50.090;21.954;2022-11-30T06:20:50;149171.59;;;0.40;100.00
54503;BME280;40411;50.090;21.954;2022-11-30T06:23:16;149179.22;;;0.43;100.00
54503;BME280;40411;50.090;21.954;2022-11-30T06:25:42;149230.00;;;0.64;100.00
54503;BME280;40411;50.090;21.954;2022-11-30T06:28:08;149175.44;;;0.42;100.00
54503;BME280;40411;50.090;21.954;2022-11-30T06:30:34;149207.16;;;0.55;100.00
54503;BME280;40411;50.090;21.954;2022-11-30T06:33:01;149181.72;;;0.44;100.00
54503;BME280;40411;50.090;21.954;2022-11-30T06:35:26;149224.97;;;0.62;100.00
54503;BME280;40411;50.090;21.954;2022-11-30T06:37:52;149204.63;;;0.54;100.00
54503;BME280;40411;50.090;21.954;2022-11-30T06:40:19;149228.75;;;0.63;100.00
54503;BME280;40411;50.090;21.954;2022-11-30T06:42:45;149204.63;;;0.54;100.00
54503;BME280;40411;50.090;21.954;2022-11-30T06:45:11;149184.31;;;0.46;100.00
54503;BME280;40411;50.090;21.954;2022-11-30T06:47:37;149218.59;;;0.59;100.00
54503;BME280;40411;50.090;21.954;2022-11-30T06:50:03;149243.97;;;0.70;100.00
54503;BME280;40411;50.090;21.954;2022-11-30T06:52:32;149204.63;;;0.54;100.00
54503;BME280;40411;50.090;21.954;2022-11-30T06:54:58;149158.88;;;0.35;100.00
54503;BME280;40411;50.090;21.954;2022-11-30T06:57:28;149199.53;;;0.52;100.00
54503;BME280;40411;50.090;21.954;2022-11-30T06:59:54;149172.84;;;0.41;100.00
54503;BME280;40411;50.090;21.954;2022-11-30T07:02:20;149212.25;;;0.57;100.00
54503;BME280;40411;50.090;21.954;2022-11-30T07:04:46;149230.00;;;0.64;100.00
54503;BME280;40411;50.090;21.954;2022-11-30T07:07:12;149257.94;;;0.75;100.00
54503;BME280;40411;50.090;21.954;2022-11-30T07:09:38;149194.44;;;0.50;100.00
54503;BME280;40411;50.090;21.954;2022-11-30T07:12:04;149236.34;;;0.66;100.00
54503;BME280;40411;50.090;21.954;2022-11-30T07:14:30;149211.00;;;0.56;100.00
54503;BME280;40411;50.090;21.954;2022-11-30T07:16:56;149231.31;;;0.64;100.00
54503;BME280;40411;50.090;21.954;2022-11-30T07:19:22;149218.59;;;0.59;100.00
54503;BME280;40411;50.090;21.954;2022-11-30T07:21:48;149230.00;;;0.64;100.00
54503;BME280;40411;50.090;21.954;2022-11-30T07:24:14;149146.19;;;0.30;100.00
54503;BME280;40411;50.090;21.954;2022-11-30T07:27:00;149128.44;;;0.23;100.00
54503;BME280;40411;50.090;21.954;2022-11-30T07:29:26;149151.28;;;0.32;100.00
54503;BME280;40411;50.090;21.954;2022-11-30T07:31:53;149115.72;;;0.18;100.00
54503;BME280;40411;50.090;21.954;2022-11-30T07:34:19;149165.25;;;0.38;100.00
54503;BME280;40411;50.090;21.954;2022-11-30T07:36:45;149175.44;;;0.42;100.00
54503;BME280;40411;50.090;21.954;2022-11-30T07:39:12;149199.53;;;0.52;100.00
54503;BME280;40411;50.090;21.954;2022-11-30T07:41:39;149110.63;;;0.16;100.00
54503;BME280;40411;50.090;21.954;2022-11-30T07:44:06;149133.47;;;0.25;100.00
54503;BME280;40411;50.090;21.954;2022-11-30T07:46:33;149151.28;;;0.32;100.00
54503;BME280;40411;50.090;21.954;2022-11-30T07:49:05;149199.53;;;0.52;100.00
54503;BME280;40411;50.090;21.954;2022-11-30T07:51:32;149163.97;;;0.37;100.00
54503;BME280;40411;50.090;21.954;2022-11-30T07:53:58;149170.34;;;0.40;100.00
54503;BME280;40411;50.090;21.954;2022-11-30T07:56:25;149155.09;;;0.34;100.00
54503;BME280;40411;50.090;21.954;2022-11-30T07:58:56;149081.44;;;0.04;100.00
54503;BME280;40411;50.090;21.954;2022-11-30T08:01:25;149163.97;;;0.37;100.00
54503;BME280;40411;50.090;21.954;2022-11-30T08:03:52;149186.81;;;0.47;100.00
54503;BME280;40411;50.090;21.954;2022-11-30T08:06:20;149132.19;;;0.25;100.00
54503;BME280;40411;50.090;21.954;2022-11-30T08:08:47;149123.34;;;0.21;100.00
54503;BME280;40411;50.090;21.954;2022-11-30T08:11:16;149211.00;;;0.56;100.00
54503;BME280;40411;50.090;21.954;2022-11-30T08:13:42;149119.50;;;0.19;100.00
54503;BME280;40411;50.090;21.954;2022-11-30T08:16:14;149097.91;;;0.11;100.00
54503;BME280;40411;50.090;21.954;2022-11-30T08:18:40;149095.41;;;0.10;100.00
54503;BME280;40411;50.090;21.954;2022-11-30T08:21:08;149056.00;;;-0.06;100.00
54503;BME280;40411;50.090;21.954;2022-11-30T08:23:37;149063.63;;;-0.03;100.00
54503;BME280;40411;50.090;21.954;2022-11-30T08:26:06;149081.44;;;0.04;100.00
54503;BME280;40411;50.090;21.954;2022-11-30T08:28:33;149053.50;;;-0.07;100.00
54503;BME280;40411;50.090;21.954;2022-11-30T08:31:05;149108.09;;;0.15;100.00
54503;BME280;40411;50.090;21.954;2022-11-30T08:33:32;149202.06;;;0.53;100.00
54503;BME280;40411;50.090;21.954;2022-11-30T08:36:18;149171.59;;;0.40;100.00
54503;BME280;40411;50.090;21.954;2022-11-30T08:38:45;149133.47;;;0.25;100.00
54503;BME280;40411;50.090;21.954;2022-11-30T08:41:14;149199.53;;;0.52;100.00
54503;BME280;40411;50.090;21.954;2022-11-30T08:43:39;149169.06;;;0.39;100.00
54503;BME280;40411;50.090;21.954;2022-11-30T08:46:08;149208.41;;;0.55;100.00
54503;BME280;40411;50.090;21.954;2022-11-30T08:48:35;149221.13;;;0.60;100.00
54503;BME280;40411;50.090;21.954;2022-11-30T08:51:03;149174.13;;;0.41;100.00
54503;BME280;40411;50.090;21.954;2022-11-30T08:53:29;149170.34;;;0.40;100.00
54503;BME280;40411;50.090;21.954;2022-11-30T08:56:00;149242.72;;;0.69;100.00
54503;BME280;40411;50.090;21.954;2022-11-30T08:58:29;149223.69;;;0.61;100.00
54503;BME280;40411;50.090;21.954;2022-11-30T09:01:14;149194.44;;;0.50;100.00
54503;BME280;40411;50.090;21.954;2022-11-30T09:03:40;149275.75;;;0.82;100.00
54503;BME280;40411;50.090;21.954;2022-11-30T09:06:15;149197.00;;;0.51;100.00
54503;BME280;40411;50.090;21.954;2022-11-30T09:08:42;149269.41;;;0.80;100.00
54503;BME280;40411;50.090;21.954;2022-11-30T09:11:09;149224.97;;;0.62;100.00
54503;BME280;40411;50.090;21.954;2022-11-30T09:13:36;149310.06;;;0.96;100.00
54503;BME280;40411;50.090;21.954;2022-11-30T09:16:02;149321.53;;;1.01;100.00
54503;BME280;40411;50.090;21.954;2022-11-30T09:18:28;149245.28;;;0.70;100.00
54503;BME280;40411;50.090;21.954;2022-11-30T09:20:58;149298.63;;;0.92;100.00
54503;BME280;40411;50.090;21.954;2022-11-30T09:23:25;149307.53;;;0.95;100.00
54503;BME280;40411;50.090;21.954;2022-11-30T09:25:59;149283.38;;;0.85;100.00
54503;BME280;40411;50.090;21.954;2022-11-30T09:28:26;149296.09;;;0.91;100.00
54503;BME280;40411;50.090;21.954;2022-11-30T09:31:06;149321.53;;;1.01;100.00
54503;BME280;40411;50.090;21.954;2022-11-30T09:33:33;149360.88;;;1.17;100.00
54503;BME280;40411;50.090;21.954;2022-11-30T09:36:01;149409.19;;;1.36;100.00
54503;BME280;40411;50.090;21.954;2022-11-30T09:38:27;149446.09;;;1.51;100.00
54503;BME280;40411;50.090;21.954;2022-11-30T09:40:56;149465.13;;;1.59;100.00
54503;BME280;40411;50.090;21.954;2022-11-30T09:43:42;149480.41;;;1.65;100.00
54503;BME280;40411;50.090;21.954;2022-11-30T09:46:11;149399.03;;;1.32;100.00
54503;BME280;40411;50.090;21.954;2022-11-30T09:51:29;149404.13;;;1.34;100.00
54503;BME280;40411;50.090;21.954;2022-11-30T09:53:59;149386.31;;;1.27;100.00
54503;BME280;40411;50.090;21.954;2022-11-30T09:56:34;149352.00;;;1.13;100.00
54503;BME280;40411;50.090;21.954;2022-11-30T09:59:21;149311.34;;;0.97;100.00
54503;BME280;40411;50.090;21.954;2022-11-30T10:01:49;149364.72;;;1.18;100.00
54503;BME280;40411;50.090;21.954;2022-11-30T10:04:26;149404.13;;;1.34;100.00
54503;BME280;40411;50.090;21.954;2022-11-30T10:09:49;149428.25;;;1.44;100.00
54503;BME280;40411;50.090;21.954;2022-11-30T10:12:32;149428.25;;;1.44;100.00
54503;BME280;40411;50.090;21.954;2022-11-30T10:17:54;149418.13;;;1.40;100.00
54503;BME280;40411;50.090;21.954;2022-11-30T10:23:17;149437.16;;;1.47;100.00
54503;BME280;40411;50.090;21.954;2022-11-30T10:25:56;149397.78;;;1.31;100.00
54503;BME280;40411;50.090;21.954;2022-11-30T10:28:48;149443.50;;;1.50;100.00
54503;BME280;40411;50.090;21.954;2022-11-30T10:31:14;149427.00;;;1.43;100.00
54503;BME280;40411;50.090;21.954;2022-11-30T10:33:51;149463.84;;;1.58;100.00
54503;BME280;40411;50.090;21.954;2022-11-30T10:36:28;149448.59;;;1.52;100.00
54503;BME280;40411;50.090;21.954;2022-11-30T10:39:21;149432.09;;;1.45;100.00
54503;BME280;40411;50.090;21.954;2022-11-30T10:42:03;149374.88;;;1.22;100.00
54503;BME280;40411;50.090;21.954;2022-11-30T10:44:35;149449.88;;;1.52;100.00
54503;BME280;40411;50.090;21.954;2022-11-30T10:49:37;149395.22;;;1.30;100.00
54503;BME280;40411;50.090;21.954;2022-11-30T10:52:07;149392.69;;;1.29;100.00
54503;BME280;40411;50.090;21.954;2022-11-30T10:54:36;149404.13;;;1.34;100.00
54503;BME280;40411;50.090;21.954;2022-11-30T10:57:03;149353.25;;;1.14;100.00
54503;BME280;40411;50.090;21.954;2022-11-30T10:59:45;149336.75;;;1.07;100.00
54503;BME280;40411;50.090;21.954;2022-11-30T11:05:26;149374.88;;;1.22;100.00
54503;BME280;40411;50.090;21.954;2022-11-30T11:07:57;149433.38;;;1.46;100.00
54503;BME280;40411;50.090;21.954;2022-11-30T11:10:29;149364.72;;;1.18;100.00
54503;BME280;40411;50.090;21.954;2022-11-30T11:12:56;149341.88;;;1.09;100.00
54503;BME280;40411;50.090;21.954;2022-11-30T11:15:25;149386.31;;;1.27;100.00
54503;BME280;40411;50.090;21.954;2022-11-30T11:17:53;149385.06;;;1.26;100.00
54503;BME280;40411;50.090;21.954;2022-11-30T11:20:37;149359.63;;;1.16;100.00
54503;BME280;40411;50.090;21.954;2022-11-30T11:23:23;149404.13;;;1.34;100.00
54503;BME280;40411;50.090;21.954;2022-11-30T11:25:52;149433.38;;;1.46;100.00
54503;BME280;40411;50.090;21.954;2022-11-30T11:28:19;149435.88;;;1.47;100.00
54503;BME280;40411;50.090;21.954;2022-11-30T11:30:47;149460.06;;;1.56;100.00
54503;BME280;40411;50.090;21.954;2022-11-30T11:35:48;149423.16;;;1.42;100.00
54503;BME280;40411;50.090;21.954;2022-11-30T11:38:28;149423.16;;;1.42;100.00
54503;BME280;40411;50.090;21.954;2022-11-30T11:43:26;149441.00;;;1.49;100.00
54503;BME280;40411;50.090;21.954;2022-11-30T11:45:56;149395.22;;;1.30;100.00
54503;BME280;40411;50.090;21.954;2022-11-30T11:48:28;149418.13;;;1.40;100.00
54503;BME280;40411;50.090;21.954;2022-11-30T11:50:56;149470.22;;;1.61;100.00
54503;BME280;40411;50.090;21.954;2022-11-30T11:53:52;149420.66;;;1.41;100.00
54503;BME280;40411;50.090;21.954;2022-11-30T12:06:43;149421.91;;;1.41;100.00
54503;BME280;40411;50.090;21.954;2022-11-30T12:09:21;149421.91;;;1.41;100.00
54503;BME280;40411;50.090;21.954;2022-11-30T12:11:48;149423.16;;;1.42;100.00
54503;BME280;40411;50.090;21.954;2022-11-30T12:14:16;149458.75;;;1.56;100.00
54503;BME280;40411;50.090;21.954;2022-11-30T12:25:17;149479.09;;;1.64;100.00
54503;BME280;40411;50.090;21.954;2022-11-30T12:30:24;149484.19;;;1.66;100.00
54503;BME280;40411;50.090;21.954;2022-11-30T12:35:42;149468.94;;;1.60;100.00
54503;BME280;40411;50.090;21.954;2022-11-30T12:38:36;149468.94;;;1.60;100.00
54503;BME280;40411;50.090;21.954;2022-11-30T12:41:30;149491.81;;;1.69;100.00
54503;BME280;40411;50.090;21.954;2022-11-30T12:44:18;149510.91;;;1.77;100.00
54503;BME280;40411;50.090;21.954;2022-11-30T12:51:59;149480.41;;;1.65;100.00
54503;BME280;40411;50.090;21.954;2022-11-30T12:57:20;149563.06;;;1.98;100.00
54503;BME280;40411;50.090;21.954;2022-11-30T13:00:31;149471.47;;;1.61;100.00
54503;BME280;40411;50.090;21.954;2022-11-30T13:05:58;149496.94;;;1.71;100.00
54503;BME280;40411;50.090;21.954;2022-11-30T13:08:26;149522.38;;;1.82;100.00
54503;BME280;40411;50.090;21.954;2022-11-30T13:10:58;149491.81;;;1.69;100.00
54503;BME280;40411;50.090;21.954;2022-11-30T13:13:28;149554.13;;;1.94;100.00
54503;BME280;40411;50.090;21.954;2022-11-30T13:15:56;149577.06;;;2.04;100.00
54503;BME280;40411;50.090;21.954;2022-11-30T13:18:23;149532.53;;;1.86;100.00
54503;BME280;40411;50.090;21.954;2022-11-30T13:23:45;149500.75;;;1.73;100.00
54503;BME280;40411;50.090;21.954;2022-11-30T13:26:44;149579.59;;;2.05;100.00
54503;BME280;40411;50.090;21.954;2022-11-30T13:32:00;149547.75;;;1.92;100.00
54503;BME280;40411;50.090;21.954;2022-11-30T13:34:31;149556.72;;;1.95;100.00
54503;BME280;40411;50.090;21.954;2022-11-30T13:37:03;149536.34;;;1.87;100.00
54503;BME280;40411;50.090;21.954;2022-11-30T13:44:40;149564.34;;;1.98;100.00
54503;BME280;40411;50.090;21.954;2022-11-30T13:47:29;149578.31;;;2.04;100.00
54503;BME280;40411;50.090;21.954;2022-11-30T13:58:13;149514.75;;;1.78;100.00
54503;BME280;40411;50.090;21.954;2022-11-30T14:05:50;149521.06;;;1.81;100.00
54503;BME280;40411;50.090;21.954;2022-11-30T14:10:53;149509.66;;;1.76;100.00
54503;BME280;40411;50.090;21.954;2022-11-30T14:13:27;149526.16;;;1.83;100.00
54503;BME280;40411;50.090;21.954;2022-11-30T14:15:56;149538.88;;;1.88;100.00
54503;BME280;40411;50.090;21.954;2022-11-30T14:18:38;149510.91;;;1.77;100.00
54503;BME280;40411;50.090;21.954;2022-11-30T14:21:25;149471.47;;;1.61;100.00
54503;BME280;40411;50.090;21.954;2022-11-30T14:24:04;149518.53;;;1.80;100.00